sensor_id;sensor_type;location;lat;lon;timestamp;pressure;altitude;pressure_sealevel;temperature;humidity
14383;BME280;7275;50.328;8.720;2023-03-13T00:02:07;99001.31;;;13.80;49.21
14383;BME280;7275;50.328;8.720;2023-03-13T00:04:34;99002.84;;;13.84;49.17
14383;BME280;7275;50.328;8.720;2023-03-13T00:07:04;98993.72;;;13.88;49.11
14383;BME280;7275;50.328;8.720;2023-03-13T00:09:32;98990.97;;;13.90;49.07
14383;BME280;7275;50.328;8.720;2023-03-13T00:12:00;98989.06;;;13.92;48.99
14383;BME280;7275;50.328;8.720;2023-03-13T00:14:27;98983.69;;;13.93;49.04
14383;BME280;7275;50.328;8.720;2023-03-13T00:16:54;98984.50;;;13.94;48.95
14383;BME280;7275;50.328;8.720;2023-03-13T00:19:22;98984.50;;;13.94;48.89
14383;BME280;7275;50.328;8.720;2023-03-13T00:21:49;98976.75;;;13.91;48.88
14383;BME280;7275;50.328;8.720;2023-03-13T00:24:18;98975.03;;;13.90;48.78
14383;BME280;7275;50.328;8.720;2023-03-13T00:26:46;98976.00;;;13.89;48.94
14383;BME280;7275;50.328;8.720;2023-03-13T00:29:13;98965.38;;;13.89;48.85
14383;BME280;7275;50.328;8.720;2023-03-13T00:31:41;98961.00;;;13.88;48.80
14383;BME280;7275;50.328;8.720;2023-03-13T00:34:09;98970.75;;;13.87;48.98
14383;BME280;7275;50.328;8.720;2023-03-13T00:36:37;98962.78;;;13.87;48.95
14383;BME280;7275;50.328;8.720;2023-03-13T00:39:05;98950.34;;;13.88;49.01
14383;BME280;7275;50.328;8.720;2023-03-13T00:41:35;98954.81;;;13.87;49.16
14383;BME280;7275;50.328;8.720;2023-03-13T00:44:02;98950.28;;;13.89;49.10
14383;BME280;7275;50.328;8.720;2023-03-13T00:46:30;98944.00;;;13.90;49.13
14383;BME280;7275;50.328;8.720;2023-03-13T00:48:58;98941.25;;;13.92;49.11
14383;BME280;7275;50.328;8.720;2023-03-13T00:51:26;98931.28;;;13.95;49.16
14383;BME280;7275;50.328;8.720;2023-03-13T00:53:55;98932.88;;;13.98;49.16
14383;BME280;7275;50.328;8.720;2023-03-13T00:56:26;98921.22;;;14.00;49.10
14383;BME280;7275;50.328;8.720;2023-03-13T00:58:55;98914.00;;;14.02;49.03
14383;BME280;7275;50.328;8.720;2023-03-13T01:01:23;98918.38;;;14.03;49.13
14383;BME280;7275;50.328;8.720;2023-03-13T01:03:53;98909.53;;;14.03;49.07
14383;BME280;7275;50.328;8.720;2023-03-13T01:06:23;98905.09;;;14.03;49.15
14383;BME280;7275;50.328;8.720;2023-03-13T01:08:51;98905.09;;;14.03;49.09
14383;BME280;7275;50.328;8.720;2023-03-13T01:11:21;98904.13;;;14.04;49.12
14383;BME280;7275;50.328;8.720;2023-03-13T01:13:52;98904.22;;;14.03;49.19
14383;BME280;7275;50.328;8.720;2023-03-13T01:16:22;98906.88;;;14.03;49.11
14383;BME280;7275;50.328;8.720;2023-03-13T01:18:52;98896.25;;;14.03;49.02
14383;BME280;7275;50.328;8.720;2023-03-13T01:21:22;98895.41;;;14.02;49.07
14383;BME280;7275;50.328;8.720;2023-03-13T01:23:51;98892.75;;;14.02;49.10
14383;BME280;7275;50.328;8.720;2023-03-13T01:26:20;98891.88;;;14.02;49.08
14383;BME280;7275;50.328;8.720;2023-03-13T01:28:48;98893.59;;;14.03;49.08
14383;BME280;7275;50.328;8.720;2023-03-13T01:31:17;98879.44;;;14.02;49.09
14383;BME280;7275;50.328;8.720;2023-03-13T01:33:48;98870.44;;;14.05;49.28
14383;BME280;7275;50.328;8.720;2023-03-13T01:36:17;98860.66;;;14.05;49.25
14383;BME280;7275;50.328;8.720;2023-03-13T01:38:47;98847.91;;;14.10;49.39
14383;BME280;7275;50.328;8.720;2023-03-13T01:41:15;98853.16;;;14.12;49.29
14383;BME280;7275;50.328;8.720;2023-03-13T01:43:43;98842.41;;;14.13;49.28
14383;BME280;7275;50.328;8.720;2023-03-13T01:46:13;98839.53;;;14.16;49.16
14383;BME280;7275;50.328;8.720;2023-03-13T01:48:47;98843.06;;;14.17;49.20
14383;BME280;7275;50.328;8.720;2023-03-13T01:51:20;98829.88;;;14.15;49.31
14383;BME280;7275;50.328;8.720;2023-03-13T01:53:53;98824.44;;;14.17;49.24
14383;BME280;7275;50.328;8.720;2023-03-13T01:56:27;98821.78;;;14.17;49.31
14383;BME280;7275;50.328;8.720;2023-03-13T01:58:57;98805.84;;;14.17;49.36
14383;BME280;7275;50.328;8.720;2023-03-13T02:01:25;98804.03;;;14.17;49.25
14383;BME280;7275;50.328;8.720;2023-03-13T02:03:55;98804.97;;;14.16;49.24
14383;BME280;7275;50.328;8.720;2023-03-13T02:06:27;98793.53;;;14.16;49.36
14383;BME280;7275;50.328;8.720;2023-03-13T02:08:58;98795.31;;;14.15;49.26
14383;BME280;7275;50.328;8.720;2023-03-13T02:11:34;98792.66;;;14.15;49.31
14383;BME280;7275;50.328;8.720;2023-03-13T02:14:04;98790.13;;;14.14;49.38
14383;BME280;7275;50.328;8.720;2023-03-13T02:16:33;98783.19;;;14.11;49.31
14383;BME280;7275;50.328;8.720;2023-03-13T02:19:09;98780.66;;;14.10;49.32
14383;BME280;7275;50.328;8.720;2023-03-13T02:21:48;98777.25;;;14.08;49.36
14383;BME280;7275;50.328;8.720;2023-03-13T02:24:27;98776.69;;;14.03;49.47
14383;BME280;7275;50.328;8.720;2023-03-13T02:26:59;98787.59;;;13.98;49.56
14383;BME280;7275;50.328;8.720;2023-03-13T02:29:27;98785.06;;;13.97;49.58
14383;BME280;7275;50.328;8.720;2023-03-13T02:31:55;98771.03;;;13.95;49.59
14383;BME280;7275;50.328;8.720;2023-03-13T02:34:27;98757.91;;;13.92;49.70
14383;BME280;7275;50.328;8.720;2023-03-13T02:36:56;98752.81;;;13.89;50.06
14383;BME280;7275;50.328;8.720;2023-03-13T02:39:25;98762.47;;;13.90;50.20
14383;BME280;7275;50.328;8.720;2023-03-13T02:41:54;98750.16;;;13.89;50.36
14383;BME280;7275;50.328;8.720;2023-03-13T02:44:24;98745.59;;;13.91;50.49
14383;BME280;7275;50.328;8.720;2023-03-13T02:46:51;98748.03;;;13.94;50.51
14383;BME280;7275;50.328;8.720;2023-03-13T02:49:22;98739.13;;;13.95;50.67
14383;BME280;7275;50.328;8.720;2023-03-13T02:51:52;98742.44;;;13.98;50.66
14383;BME280;7275;50.328;8.720;2023-03-13T02:54:22;98724.56;;;14.00;50.87
14383;BME280;7275;50.328;8.720;2023-03-13T02:56:53;98715.56;;;14.03;50.89
14383;BME280;7275;50.328;8.720;2023-03-13T02:59:23;98713.66;;;14.05;50.90
14383;BME280;7275;50.328;8.720;2023-03-13T03:01:51;98719.72;;;14.07;50.87
14383;BME280;7275;50.328;8.720;2023-03-13T03:04:20;98716.88;;;14.10;50.87
14383;BME280;7275;50.328;8.720;2023-03-13T03:06:48;98699.94;;;14.11;50.88
14383;BME280;7275;50.328;8.720;2023-03-13T03:09:16;98709.53;;;14.13;50.88
14383;BME280;7275;50.328;8.720;2023-03-13T03:11:44;98694.44;;;14.14;50.95
14383;BME280;7275;50.328;8.720;2023-03-13T03:14:12;98682.84;;;14.15;50.96
14383;BME280;7275;50.328;8.720;2023-03-13T03:16:41;98688.16;;;14.15;51.06
14383;BME280;7275;50.328;8.720;2023-03-13T03:19:09;98693.34;;;14.16;50.95
14383;BME280;7275;50.328;8.720;2023-03-13T03:21:37;98683.69;;;14.15;51.00
14383;BME280;7275;50.328;8.720;2023-03-13T03:24:05;98688.03;;;14.16;51.14
14383;BME280;7275;50.328;8.720;2023-03-13T03:26:34;98686.25;;;14.17;50.96
14383;BME280;7275;50.328;8.720;2023-03-13T03:29:02;98679.25;;;14.16;51.06
14383;BME280;7275;50.328;8.720;2023-03-13T03:31:30;98680.91;;;14.17;51.10
14383;BME280;7275;50.328;8.720;2023-03-13T03:33:59;98674.00;;;14.14;51.24
14383;BME280;7275;50.328;8.720;2023-03-13T03:36:26;98678.50;;;14.14;51.19
14383;BME280;7275;50.328;8.720;2023-03-13T03:38:55;98672.31;;;14.13;51.29
14383;BME280;7275;50.328;8.720;2023-03-13T03:41:22;98665.19;;;14.14;51.25
14383;BME280;7275;50.328;8.720;2023-03-13T03:43:50;98665.19;;;14.14;51.22
14383;BME280;7275;50.328;8.720;2023-03-13T03:46:17;98669.66;;;14.13;51.26
14383;BME280;7275;50.328;8.720;2023-03-13T03:48:45;98663.50;;;14.13;51.28
14383;BME280;7275;50.328;8.720;2023-03-13T03:51:14;98659.97;;;14.12;51.32
14383;BME280;7275;50.328;8.720;2023-03-13T03:53:41;98658.28;;;14.11;51.31
14383;BME280;7275;50.328;8.720;2023-03-13T03:56:09;98656.50;;;14.12;51.49
14383;BME280;7275;50.328;8.720;2023-03-13T03:58:36;98657.53;;;14.09;51.51
14383;BME280;7275;50.328;8.720;2023-03-13T04:01:04;98659.34;;;14.09;51.60
14383;BME280;7275;50.328;8.720;2023-03-13T04:03:31;98653.16;;;14.08;51.67
14383;BME280;7275;50.328;8.720;2023-03-13T04:05:59;98652.34;;;14.08;51.77
14383;BME280;7275;50.328;8.720;2023-03-13T04:08:28;98645.31;;;14.07;51.82
14383;BME280;7275;50.328;8.720;2023-03-13T04:10:55;98645.31;;;14.07;51.90
14383;BME280;7275;50.328;8.720;2023-03-13T04:13:23;98629.34;;;14.07;51.95
14383;BME280;7275;50.328;8.720;2023-03-13T04:15:51;98623.19;;;14.06;52.03
14383;BME280;7275;50.328;8.720;2023-03-13T04:18:18;98614.38;;;14.06;52.06
14383;BME280;7275;50.328;8.720;2023-03-13T04:20:46;98624.28;;;14.04;52.14
14383;BME280;7275;50.328;8.720;2023-03-13T04:23:13;98614.59;;;14.03;52.19
14383;BME280;7275;50.328;8.720;2023-03-13T04:25:42;98615.53;;;14.02;52.26
14383;BME280;7275;50.328;8.720;2023-03-13T04:28:09;98605.13;;;13.99;52.45
14383;BME280;7275;50.328;8.720;2023-03-13T04:30:37;98598.94;;;13.98;52.52
14383;BME280;7275;50.328;8.720;2023-03-13T04:33:05;98594.63;;;13.97;52.59
14383;BME280;7275;50.328;8.720;2023-03-13T04:35:32;98604.28;;;13.98;52.73
14383;BME280;7275;50.328;8.720;2023-03-13T04:38:00;98594.50;;;13.99;52.68
14383;BME280;7275;50.328;8.720;2023-03-13T04:40:28;98598.00;;;13.99;52.87
14383;BME280;7275;50.328;8.720;2023-03-13T04:42:56;98586.41;;;14.00;52.99
14383;BME280;7275;50.328;8.720;2023-03-13T04:45:24;98592.47;;;14.02;53.17
14383;BME280;7275;50.328;8.720;2023-03-13T04:47:51;98600.34;;;14.04;53.09
14383;BME280;7275;50.328;8.720;2023-03-13T04:50:19;98602.16;;;14.03;53.12
14383;BME280;7275;50.328;8.720;2023-03-13T04:52:46;98608.22;;;14.05;53.13
14383;BME280;7275;50.328;8.720;2023-03-13T04:55:15;98590.56;;;14.04;53.16
14383;BME280;7275;50.328;8.720;2023-03-13T04:57:42;98591.31;;;14.06;53.30
14383;BME280;7275;50.328;8.720;2023-03-13T05:00:12;98590.34;;;14.07;53.45
14383;BME280;7275;50.328;8.720;2023-03-13T05:02:40;98595.69;;;14.07;53.41
14383;BME280;7275;50.328;8.720;2023-03-13T05:05:07;98589.38;;;14.08;53.46
14383;BME280;7275;50.328;8.720;2023-03-13T05:07:35;98573.34;;;14.10;53.48
14383;BME280;7275;50.328;8.720;2023-03-13T05:10:03;98582.91;;;14.12;53.44
14383;BME280;7275;50.328;8.720;2023-03-13T05:12:31;98574.94;;;14.12;53.50
14383;BME280;7275;50.328;8.720;2023-03-13T05:14:58;98564.22;;;14.14;53.58
14383;BME280;7275;50.328;8.720;2023-03-13T05:17:27;98568.56;;;14.15;53.46
14383;BME280;7275;50.328;8.720;2023-03-13T05:19:55;98567.63;;;14.16;53.54
14383;BME280;7275;50.328;8.720;2023-03-13T05:22:22;98553.34;;;14.17;53.48
14383;BME280;7275;50.328;8.720;2023-03-13T05:24:50;98547.84;;;14.20;53.46
14383;BME280;7275;50.328;8.720;2023-03-13T05:27:17;98557.41;;;14.22;53.53
14383;BME280;7275;50.328;8.720;2023-03-13T05:29:45;98563.56;;;14.23;53.51
14383;BME280;7275;50.328;8.720;2023-03-13T05:32:12;98538.69;;;14.24;53.57
14383;BME280;7275;50.328;8.720;2023-03-13T05:34:41;98541.47;;;14.22;53.85
14383;BME280;7275;50.328;8.720;2023-03-13T05:37:08;98538.56;;;14.25;53.70
14383;BME280;7275;50.328;8.720;2023-03-13T05:39:36;98541.22;;;14.25;53.75
14383;BME280;7275;50.328;8.720;2023-03-13T05:42:04;98544.63;;;14.27;53.85
14383;BME280;7275;50.328;8.720;2023-03-13T05:44:31;98552.44;;;14.30;53.81
14383;BME280;7275;50.328;8.720;2023-03-13T05:46:59;98554.84;;;14.33;53.96
14383;BME280;7275;50.328;8.720;2023-03-13T05:49:29;98555.50;;;14.37;53.93
14383;BME280;7275;50.328;8.720;2023-03-13T05:51:58;98552.72;;;14.38;54.05
14383;BME280;7275;50.328;8.720;2023-03-13T05:54:25;98524.34;;;14.39;54.10
14383;BME280;7275;50.328;8.720;2023-03-13T05:56:53;98526.16;;;14.38;54.04
14383;BME280;7275;50.328;8.720;2023-03-13T05:59:20;98519.03;;;14.39;54.28
14383;BME280;7275;50.328;8.720;2023-03-13T06:01:48;98502.22;;;14.38;54.54
14383;BME280;7275;50.328;8.720;2023-03-13T06:04:16;98512.84;;;14.38;54.50
14383;BME280;7275;50.328;8.720;2023-03-13T06:06:45;98519.75;;;14.41;54.59
14383;BME280;7275;50.328;8.720;2023-03-13T06:09:14;98487.63;;;14.44;54.57
14383;BME280;7275;50.328;8.720;2023-03-13T06:11:41;98491.03;;;14.46;54.62
14383;BME280;7275;50.328;8.720;2023-03-13T06:14:09;98497.06;;;14.48;54.67
14383;BME280;7275;50.328;8.720;2023-03-13T06:16:36;98487.19;;;14.50;54.79
14383;BME280;7275;50.328;8.720;2023-03-13T06:19:04;98482.50;;;14.54;54.82
14383;BME280;7275;50.328;8.720;2023-03-13T06:21:31;98496.31;;;14.59;54.81
14383;BME280;7275;50.328;8.720;2023-03-13T06:23:59;98494.28;;;14.62;54.83
14383;BME280;7275;50.328;8.720;2023-03-13T06:26:27;98495.75;;;14.66;54.81
14383;BME280;7275;50.328;8.720;2023-03-13T06:28:55;98501.56;;;14.71;54.83
14383;BME280;7275;50.328;8.720;2023-03-13T06:31:22;98498.59;;;14.76;54.78
14383;BME280;7275;50.328;8.720;2023-03-13T06:33:52;98512.50;;;14.79;54.94
14383;BME280;7275;50.328;8.720;2023-03-13T06:36:20;98501.66;;;14.82;55.07
14383;BME280;7275;50.328;8.720;2023-03-13T06:38:48;98510.25;;;14.86;55.12
14383;BME280;7275;50.328;8.720;2023-03-13T06:41:15;98509.78;;;14.92;55.01
14383;BME280;7275;50.328;8.720;2023-03-13T06:43:44;98494.47;;;14.95;55.18
14383;BME280;7275;50.328;8.720;2023-03-13T06:46:15;98517.09;;;15.01;55.22
14383;BME280;7275;50.328;8.720;2023-03-13T06:48:43;98509.72;;;15.04;55.32
14383;BME280;7275;50.328;8.720;2023-03-13T06:51:11;98514.59;;;15.10;55.15
14383;BME280;7275;50.328;8.720;2023-03-13T06:53:39;98488.63;;;15.14;55.23
14383;BME280;7275;50.328;8.720;2023-03-13T06:56:07;98496.25;;;15.18;55.17
14383;BME280;7275;50.328;8.720;2023-03-13T06:58:35;98496.75;;;15.23;55.09
14383;BME280;7275;50.328;8.720;2023-03-13T07:01:06;98492.03;;;15.27;55.22
14383;BME280;7275;50.328;8.720;2023-03-13T07:03:35;98479.34;;;15.31;55.23
14383;BME280;7275;50.328;8.720;2023-03-13T07:06:04;98483.34;;;15.36;55.29
14383;BME280;7275;50.328;8.720;2023-03-13T07:08:32;98491.00;;;15.41;55.37
14383;BME280;7275;50.328;8.720;2023-03-13T07:11:01;98493.34;;;15.45;55.44
14383;BME280;7275;50.328;8.720;2023-03-13T07:13:30;98506.94;;;15.53;55.46
14383;BME280;7275;50.328;8.720;2023-03-13T07:15:58;98492.19;;;15.60;55.70
14383;BME280;7275;50.328;8.720;2023-03-13T07:18:27;98525.34;;;15.67;55.69
14383;BME280;7275;50.328;8.720;2023-03-13T07:20:57;98499.09;;;15.74;55.69
14383;BME280;7275;50.328;8.720;2023-03-13T07:23:27;98491.34;;;15.82;55.64
14383;BME280;7275;50.328;8.720;2023-03-13T07:25:56;98492.47;;;15.90;55.60
14383;BME280;7275;50.328;8.720;2023-03-13T07:28:25;98503.50;;;15.97;55.47
14383;BME280;7275;50.328;8.720;2023-03-13T07:30:53;98495.88;;;16.04;55.74
14383;BME280;7275;50.328;8.720;2023-03-13T07:33:20;98486.53;;;16.09;55.71
14383;BME280;7275;50.328;8.720;2023-03-13T07:35:50;98486.03;;;16.15;55.66
14383;BME280;7275;50.328;8.720;2023-03-13T07:38:19;98490.66;;;16.24;55.65
14383;BME280;7275;50.328;8.720;2023-03-13T07:40:47;98488.09;;;16.34;55.63
14383;BME280;7275;50.328;8.720;2023-03-13T07:43:15;98480.09;;;16.45;55.58
14383;BME280;7275;50.328;8.720;2023-03-13T07:45:51;98480.22;;;16.54;55.61
14383;BME280;7275;50.328;8.720;2023-03-13T07:48:19;98484.56;;;16.66;55.65
14383;BME280;7275;50.328;8.720;2023-03-13T07:50:47;98476.78;;;16.74;55.60
14383;BME280;7275;50.328;8.720;2023-03-13T07:53:17;98481.47;;;16.82;55.35
14383;BME280;7275;50.328;8.720;2023-03-13T07:55:52;98482.69;;;16.89;55.22
14383;BME280;7275;50.328;8.720;2023-03-13T07:58:20;98484.00;;;16.95;55.22
14383;BME280;7275;50.328;8.720;2023-03-13T08:00:47;98485.06;;;17.03;55.31
14383;BME280;7275;50.328;8.720;2023-03-13T08:03:15;98476.41;;;17.11;55.18
14383;BME280;7275;50.328;8.720;2023-03-13T08:05:43;98503.44;;;17.17;55.22
14383;BME280;7275;50.328;8.720;2023-03-13T08:08:10;98492.25;;;17.23;55.20
14383;BME280;7275;50.328;8.720;2023-03-13T08:10:39;98513.00;;;17.31;55.08
14383;BME280;7275;50.328;8.720;2023-03-13T08:13:07;98517.81;;;17.37;55.32
14383;BME280;7275;50.328;8.720;2023-03-13T08:15:34;98509.44;;;17.41;55.05
14383;BME280;7275;50.328;8.720;2023-03-13T08:18:02;98502.13;;;17.43;54.89
14383;BME280;7275;50.328;8.720;2023-03-13T08:20:29;98495.66;;;17.46;54.87
14383;BME280;7275;50.328;8.720;2023-03-13T08:22:57;98501.75;;;17.48;54.81
14383;BME280;7275;50.328;8.720;2023-03-13T08:25:24;98499.91;;;17.48;54.79
14383;BME280;7275;50.328;8.720;2023-03-13T08:27:53;98501.75;;;17.48;54.89
14383;BME280;7275;50.328;8.720;2023-03-13T08:30:21;98491.16;;;17.46;54.83
14383;BME280;7275;50.328;8.720;2023-03-13T08:32:48;98496.41;;;17.48;54.85
14383;BME280;7275;50.328;8.720;2023-03-13T08:35:16;98496.28;;;17.49;54.78
14383;BME280;7275;50.328;8.720;2023-03-13T08:37:43;98491.81;;;17.50;54.98
14383;BME280;7275;50.328;8.720;2023-03-13T08:40:11;98484.50;;;17.52;54.80
14383;BME280;7275;50.328;8.720;2023-03-13T08:42:39;98487.63;;;17.57;54.85
14383;BME280;7275;50.328;8.720;2023-03-13T08:45:09;98497.78;;;17.63;54.93
14383;BME280;7275;50.328;8.720;2023-03-13T08:47:36;98484.03;;;17.68;54.95
14383;BME280;7275;50.328;8.720;2023-03-13T08:50:04;98493.34;;;17.73;55.00
14383;BME280;7275;50.328;8.720;2023-03-13T08:52:32;98491.00;;;17.80;54.93
14383;BME280;7275;50.328;8.720;2023-03-13T08:54:59;98486.13;;;17.85;54.92
14383;BME280;7275;50.328;8.720;2023-03-13T08:57:27;98484.00;;;17.88;54.70
14383;BME280;7275;50.328;8.720;2023-03-13T08:59:54;98491.78;;;17.91;54.84
14383;BME280;7275;50.328;8.720;2023-03-13T09:02:23;98497.97;;;17.92;54.54
14383;BME280;7275;50.328;8.720;2023-03-13T09:04:51;98519.09;;;17.95;54.58
14383;BME280;7275;50.328;8.720;2023-03-13T09:07:18;98493.22;;;17.95;54.53
14383;BME280;7275;50.328;8.720;2023-03-13T09:09:46;98483.22;;;17.97;54.72
14383;BME280;7275;50.328;8.720;2023-03-13T09:12:13;98489.44;;;17.98;54.79
14383;BME280;7275;50.328;8.720;2023-03-13T09:14:56;98488.91;;;18.04;54.88
14383;BME280;7275;50.328;8.720;2023-03-13T09:17:25;98469.81;;;18.18;55.20
14383;BME280;7275;50.328;8.720;2023-03-13T09:19:52;98477.75;;;18.38;54.86
14383;BME280;7275;50.328;8.720;2023-03-13T09:22:26;98465.75;;;18.63;55.01
14383;BME280;7275;50.328;8.720;2023-03-13T09:24:54;98454.66;;;18.87;54.81
14383;BME280;7275;50.328;8.720;2023-03-13T09:27:21;98454.69;;;19.06;54.46
14383;BME280;7275;50.328;8.720;2023-03-13T09:29:49;98445.38;;;19.20;54.15
14383;BME280;7275;50.328;8.720;2023-03-13T09:32:17;98451.72;;;19.28;53.75
14383;BME280;7275;50.328;8.720;2023-03-13T09:34:47;98440.56;;;19.33;53.59
14383;BME280;7275;50.328;8.720;2023-03-13T09:37:14;98446.25;;;19.39;53.46
14383;BME280;7275;50.328;8.720;2023-03-13T09:39:42;98441.56;;;19.51;53.59
14383;BME280;7275;50.328;8.720;2023-03-13T09:42:13;98425.47;;;19.60;53.16
14383;BME280;7275;50.328;8.720;2023-03-13T09:44:45;98427.56;;;19.66;53.14
14383;BME280;7275;50.328;8.720;2023-03-13T09:47:20;98432.50;;;19.71;52.87
14383;BME280;7275;50.328;8.720;2023-03-13T09:49:55;98411.88;;;19.71;52.76
14383;BME280;7275;50.328;8.720;2023-03-13T09:52:25;98416.25;;;19.72;52.66
14383;BME280;7275;50.328;8.720;2023-03-13T09:54:56;98404.97;;;19.69;52.52
14383;BME280;7275;50.328;8.720;2023-03-13T09:57:30;98421.91;;;19.69;52.62
14383;BME280;7275;50.328;8.720;2023-03-13T10:00:02;98410.75;;;19.74;52.74
14383;BME280;7275;50.328;8.720;2023-03-13T10:02:34;98433.31;;;19.81;52.66
14383;BME280;7275;50.328;8.720;2023-03-13T10:05:12;98449.25;;;19.82;52.50
14383;BME280;7275;50.328;8.720;2023-03-13T10:07:42;98450.38;;;19.80;52.41
14383;BME280;7275;50.328;8.720;2023-03-13T10:10:13;98481.59;;;19.71;52.29
14383;BME280;7275;50.328;8.720;2023-03-13T10:12:44;98463.41;;;19.65;52.34
14383;BME280;7275;50.328;8.720;2023-03-13T10:15:31;98465.81;;;19.59;52.44
14383;BME280;7275;50.328;8.720;2023-03-13T10:18:10;98483.88;;;19.57;52.39
14383;BME280;7275;50.328;8.720;2023-03-13T10:20:41;98473.59;;;19.52;52.35
14383;BME280;7275;50.328;8.720;2023-03-13T10:23:14;98447.22;;;19.48;52.47
14383;BME280;7275;50.328;8.720;2023-03-13T10:25:43;98448.78;;;19.50;52.48
14383;BME280;7275;50.328;8.720;2023-03-13T10:28:11;98433.38;;;19.52;52.57
14383;BME280;7275;50.328;8.720;2023-03-13T10:30:43;98436.63;;;19.56;52.47
14383;BME280;7275;50.328;8.720;2023-03-13T10:33:18;98435.34;;;19.60;52.45
14383;BME280;7275;50.328;8.720;2023-03-13T10:36:03;98432.94;;;19.57;52.24
14383;BME280;7275;50.328;8.720;2023-03-13T10:38:33;98434.78;;;19.56;52.43
14383;BME280;7275;50.328;8.720;2023-03-13T10:41:04;98431.53;;;19.53;52.42
14383;BME280;7275;50.328;8.720;2023-03-13T10:43:49;98438.88;;;19.51;52.33
14383;BME280;7275;50.328;8.720;2023-03-13T10:46:24;98426.47;;;19.50;52.44
14383;BME280;7275;50.328;8.720;2023-03-13T10:48:53;98434.09;;;19.54;52.48
14383;BME280;7275;50.328;8.720;2023-03-13T10:51:24;98435.50;;;19.58;52.56
14383;BME280;7275;50.328;8.720;2023-03-13T10:53:56;98453.13;;;19.61;52.56
14383;BME280;7275;50.328;8.720;2023-03-13T10:56:27;98427.84;;;19.63;52.53
14383;BME280;7275;50.328;8.720;2023-03-13T10:58:56;98439.97;;;19.67;52.50
14383;BME280;7275;50.328;8.720;2023-03-13T11:01:25;98427.41;;;19.68;52.47
14383;BME280;7275;50.328;8.720;2023-03-13T11:03:55;98426.28;;;19.70;52.37
14383;BME280;7275;50.328;8.720;2023-03-13T11:06:28;98425.97;;;19.73;52.45
14383;BME280;7275;50.328;8.720;2023-03-13T11:09:02;98426.56;;;19.77;52.49
14383;BME280;7275;50.328;8.720;2023-03-13T11:11:42;98412.56;;;19.73;52.47
14383;BME280;7275;50.328;8.720;2023-03-13T11:14:14;98410.19;;;19.70;52.34
14383;BME280;7275;50.328;8.720;2023-03-13T11:16:46;98404.97;;;19.69;52.41
14383;BME280;7275;50.328;8.720;2023-03-13T11:19:28;98415.13;;;19.65;52.42
14383;BME280;7275;50.328;8.720;2023-03-13T11:22:05;98413.72;;;19.61;52.53
14383;BME280;7275;50.328;8.720;2023-03-13T11:24:41;98410.78;;;19.55;52.41
14383;BME280;7275;50.328;8.720;2023-03-13T11:27:18;98409.53;;;19.49;52.49
14383;BME280;7275;50.328;8.720;2023-03-13T11:30:00;98404.75;;;19.43;52.58
14383;BME280;7275;50.328;8.720;2023-03-13T11:32:37;98410.00;;;19.35;52.73
14383;BME280;7275;50.328;8.720;2023-03-13T11:35:17;98407.72;;;19.31;52.83
14383;BME280;7275;50.328;8.720;2023-03-13T11:37:49;98402.94;;;19.25;52.83
14383;BME280;7275;50.328;8.720;2023-03-13T11:40:19;98399.00;;;19.19;52.98
14383;BME280;7275;50.328;8.720;2023-03-13T11:46:07;98387.00;;;19.04;53.43
14383;BME280;7275;50.328;8.720;2023-03-13T11:48:50;98394.06;;;18.95;53.48
14383;BME280;7275;50.328;8.720;2023-03-13T11:51:27;98386.28;;;18.92;53.69
14383;BME280;7275;50.328;8.720;2023-03-13T11:57:04;98377.28;;;18.84;54.08
14383;BME280;7275;50.328;8.720;2023-03-13T11:59:38;98360.25;;;18.85;53.95
14383;BME280;7275;50.328;8.720;2023-03-13T12:02:18;98355.84;;;18.84;53.98
14383;BME280;7275;50.328;8.720;2023-03-13T12:04:54;98364.47;;;18.87;54.26
14383;BME280;7275;50.328;8.720;2023-03-13T12:07:26;98358.69;;;18.92;54.05
14383;BME280;7275;50.328;8.720;2023-03-13T12:09:59;98331.63;;;18.95;54.18
14383;BME280;7275;50.328;8.720;2023-03-13T12:12:39;98339.22;;;18.99;54.05
14383;BME280;7275;50.328;8.720;2023-03-13T12:15:21;98331.19;;;18.99;53.90
14383;BME280;7275;50.328;8.720;2023-03-13T12:17:52;98323.16;;;18.99;53.90
14383;BME280;7275;50.328;8.720;2023-03-13T12:20:24;98328.66;;;18.98;53.87
14383;BME280;7275;50.328;8.720;2023-03-13T12:23:05;98334.03;;;18.98;53.82
14383;BME280;7275;50.328;8.720;2023-03-13T12:25:44;98330.50;;;18.97;53.68
14383;BME280;7275;50.328;8.720;2023-03-13T12:28:19;98319.78;;;18.97;53.61
14383;BME280;7275;50.328;8.720;2023-03-13T12:30:55;98331.47;;;18.96;53.55
14383;BME280;7275;50.328;8.720;2023-03-13T12:33:29;98330.75;;;18.94;53.58
14383;BME280;7275;50.328;8.720;2023-03-13T12:36:04;98312.88;;;18.95;53.61
14383;BME280;7275;50.328;8.720;2023-03-13T12:38:38;98299.31;;;18.96;53.78
14383;BME280;7275;50.328;8.720;2023-03-13T12:41:23;98300.72;;;19.00;53.81
14383;BME280;7275;50.328;8.720;2023-03-13T12:43:53;98293.25;;;19.04;53.62
14383;BME280;7275;50.328;8.720;2023-03-13T12:46:41;98286.78;;;19.06;53.50
14383;BME280;7275;50.328;8.720;2023-03-13T12:49:24;98284.81;;;19.08;53.59
14383;BME280;7275;50.328;8.720;2023-03-13T12:52:07;98268.72;;;19.08;53.37
14383;BME280;7275;50.328;8.720;2023-03-13T12:54:48;98262.38;;;19.09;53.34
14383;BME280;7275;50.328;8.720;2023-03-13T12:57:37;98261.25;;;19.12;53.31
14383;BME280;7275;50.328;8.720;2023-03-13T13:00:15;98254.06;;;19.12;53.30
14383;BME280;7275;50.328;8.720;2023-03-13T13:02:45;98251.63;;;19.19;53.28
14383;BME280;7275;50.328;8.720;2023-03-13T13:05:18;98232.41;;;19.24;53.40
14383;BME280;7275;50.328;8.720;2023-03-13T13:07:53;98254.13;;;19.30;53.37
14383;BME280;7275;50.328;8.720;2023-03-13T13:10:22;98228.63;;;19.36;53.40
14383;BME280;7275;50.328;8.720;2023-03-13T13:13:18;98220.78;;;19.52;53.42
14383;BME280;7275;50.328;8.720;2023-03-13T13:15:59;98222.84;;;19.58;53.22
14383;BME280;7275;50.328;8.720;2023-03-13T13:18:29;98216.03;;;19.63;52.95
14383;BME280;7275;50.328;8.720;2023-03-13T13:21:19;98207.72;;;19.66;53.02
14383;BME280;7275;50.328;8.720;2023-03-13T13:23:47;98204.25;;;19.74;53.02
14383;BME280;7275;50.328;8.720;2023-03-13T13:26:46;98198.84;;;19.83;52.97
14383;BME280;7275;50.328;8.720;2023-03-13T13:29:51;98193.25;;;19.94;52.84
14383;BME280;7275;50.328;8.720;2023-03-13T13:32:28;98174.25;;;20.06;52.96
14383;BME280;7275;50.328;8.720;2023-03-13T13:35:01;98158.75;;;20.17;52.62